sensor_id;sensor_type;location;lat;lon;timestamp;pressure;altitude;pressure_sealevel;temperature;humidity
32243;BME280;18731;42.830;24.390;2022-07-23T03:00:46;94752.31;;;14.52;75.12
32243;BME280;18731;42.830;24.390;2022-07-23T03:03:12;94816.44;;;15.01;75.48
32243;BME280;18731;42.830;24.390;2022-07-23T03:05:38;94858.25;;;15.30;75.39
32243;BME280;18731;42.830;24.390;2022-07-23T03:08:04;94799.09;;;14.83;75.30
32243;BME280;18731;42.830;24.390;2022-07-23T03:10:30;94815.41;;;14.90;75.48
32243;BME280;18731;42.830;24.390;2022-07-23T03:12:56;94846.44;;;15.03;75.70
32243;BME280;18731;42.830;24.390;2022-07-23T03:15:22;94844.28;;;15.08;75.70
32243;BME280;18731;42.830;24.390;2022-07-23T03:17:48;94861.53;;;15.23;75.14
32243;BME280;18731;42.830;24.390;2022-07-23T03:20:13;94868.91;;;15.26;75.62
32243;BME280;18731;42.830;24.390;2022-07-23T03:22:39;94852.09;;;15.13;75.35
32243;BME280;18731;42.830;24.390;2022-07-23T03:25:05;94852.69;;;15.07;75.65
32243;BME280;18731;42.830;24.390;2022-07-23T03:27:31;94853.72;;;15.02;75.80
32243;BME280;18731;42.830;24.390;2022-07-23T03:30:02;94833.53;;;14.93;75.65
32243;BME280;18731;42.830;24.390;2022-07-23T03:32:28;94885.38;;;15.25;75.75
32243;BME280;18731;42.830;24.390;2022-07-23T03:34:55;94886.34;;;15.32;75.49
32243;BME280;18731;42.830;24.390;2022-07-23T03:37:22;94844.53;;;15.19;74.90
32243;BME280;18731;42.830;24.390;2022-07-23T03:39:47;94891.63;;;15.44;74.80
32243;BME280;18731;42.830;24.390;2022-07-23T03:42:13;94876.53;;;15.40;74.76
32243;BME280;18731;42.830;24.390;2022-07-23T03:44:39;94878.00;;;15.37;75.04
32243;BME280;18731;42.830;24.390;2022-07-23T03:47:05;94773.19;;;14.74;74.75
32243;BME280;18731;42.830;24.390;2022-07-23T03:49:34;94892.66;;;15.56;74.79
32243;BME280;18731;42.830;24.390;2022-07-23T03:52:00;94879.81;;;15.49;74.89
32243;BME280;18731;42.830;24.390;2022-07-23T03:54:26;94845.13;;;15.28;74.61
32243;BME280;18731;42.830;24.390;2022-07-23T03:56:52;94851.97;;;15.41;74.34
32243;BME280;18731;42.830;24.390;2022-07-23T03:59:18;94886.47;;;15.67;74.64
32243;BME280;18731;42.830;24.390;2022-07-23T04:01:43;94865.31;;;15.54;74.21
32243;BME280;18731;42.830;24.390;2022-07-23T04:04:09;94871.00;;;15.64;74.59
32243;BME280;18731;42.830;24.390;2022-07-23T04:06:36;94863.38;;;15.66;74.25
32243;BME280;18731;42.830;24.390;2022-07-23T04:09:03;94885.72;;;15.86;74.32
32243;BME280;18731;42.830;24.390;2022-07-23T04:11:29;94886.56;;;15.90;74.26
32243;BME280;18731;42.830;24.390;2022-07-23T04:13:55;94887.00;;;15.92;74.23
32243;BME280;18731;42.830;24.390;2022-07-23T04:16:21;94871.47;;;15.86;73.75
32243;BME280;18731;42.830;24.390;2022-07-23T04:18:47;94836.53;;;15.70;73.66
32243;BME280;18731;42.830;24.390;2022-07-23T04:21:12;94870.31;;;16.02;73.77
32243;BME280;18731;42.830;24.390;2022-07-23T04:23:38;94893.00;;;16.21;73.71
32243;BME280;18731;42.830;24.390;2022-07-23T04:26:04;94876.69;;;16.14;73.85
32243;BME280;18731;42.830;24.390;2022-07-23T04:28:30;94894.69;;;16.29;73.72
32243;BME280;18731;42.830;24.390;2022-07-23T04:30:56;94872.59;;;16.20;73.75
32243;BME280;18731;42.830;24.390;2022-07-23T04:33:27;94889.59;;;16.43;73.69
32243;BME280;18731;42.830;24.390;2022-07-23T04:35:54;94878.97;;;16.50;73.41
32243;BME280;18731;42.830;24.390;2022-07-23T04:38:20;94850.19;;;16.35;73.21
32243;BME280;18731;42.830;24.390;2022-07-23T04:40:47;94877.19;;;16.77;72.88
32243;BME280;18731;42.830;24.390;2022-07-23T04:43:12;94852.22;;;16.61;72.33
32243;BME280;18731;42.830;24.390;2022-07-23T04:45:38;94844.47;;;16.79;71.81
32243;BME280;18731;42.830;24.390;2022-07-23T04:48:04;94888.91;;;17.30;71.46
32243;BME280;18731;42.830;24.390;2022-07-23T04:50:30;94889.56;;;17.47;70.71
32243;BME280;18731;42.830;24.390;2022-07-23T04:52:56;94883.13;;;17.55;70.13
32243;BME280;18731;42.830;24.390;2022-07-23T04:55:21;94859.97;;;17.54;69.74
32243;BME280;18731;42.830;24.390;2022-07-23T04:57:49;94832.00;;;17.39;69.56
32243;BME280;18731;42.830;24.390;2022-07-23T05:00:16;94875.06;;;17.81;69.01
32243;BME280;18731;42.830;24.390;2022-07-23T05:02:42;94885.84;;;18.08;68.75
32243;BME280;18731;42.830;24.390;2022-07-23T05:05:08;94865.47;;;18.14;68.10
32243;BME280;18731;42.830;24.390;2022-07-23T05:07:33;94870.72;;;18.29;67.68
32243;BME280;18731;42.830;24.390;2022-07-23T05:09:59;94881.38;;;18.49;66.87
32243;BME280;18731;42.830;24.390;2022-07-23T05:12:25;94874.28;;;18.67;66.76
32243;BME280;18731;42.830;24.390;2022-07-23T05:14:50;94860.78;;;18.71;66.65
32243;BME280;18731;42.830;24.390;2022-07-23T05:17:18;94879.66;;;19.01;66.22
32243;BME280;18731;42.830;24.390;2022-07-23T05:19:44;94878.25;;;19.17;65.84
32243;BME280;18731;42.830;24.390;2022-07-23T05:22:09;94875.63;;;19.24;64.70
32243;BME280;18731;42.830;24.390;2022-07-23T05:24:38;94874.63;;;19.43;64.53
32243;BME280;18731;42.830;24.390;2022-07-23T05:27:06;94870.91;;;19.62;64.33
32243;BME280;18731;42.830;24.390;2022-07-23T05:29:33;94884.25;;;19.88;63.83
32243;BME280;18731;42.830;24.390;2022-07-23T05:31:59;94839.72;;;19.82;63.13
32243;BME280;18731;42.830;24.390;2022-07-23T05:34:25;94883.72;;;20.27;63.07
32243;BME280;18731;42.830;24.390;2022-07-23T05:36:50;94868.25;;;20.38;62.88
32243;BME280;18731;42.830;24.390;2022-07-23T05:39:16;94861.41;;;20.59;61.82
32243;BME280;18731;42.830;24.390;2022-07-23T05:41:42;94871.59;;;20.90;61.42
32243;BME280;18731;42.830;24.390;2022-07-23T05:44:07;94870.84;;;21.07;61.17
32243;BME280;18731;42.830;24.390;2022-07-23T05:46:33;94827.44;;;21.07;60.54
32243;BME280;18731;42.830;24.390;2022-07-23T05:48:59;94870.91;;;21.54;60.01
32243;BME280;18731;42.830;24.390;2022-07-23T05:51:26;94877.13;;;21.75;60.20
32243;BME280;18731;42.830;24.390;2022-07-23T05:53:52;94870.88;;;22.00;60.40
32243;BME280;18731;42.830;24.390;2022-07-23T05:56:18;94863.47;;;22.18;59.77
32243;BME280;18731;42.830;24.390;2022-07-23T05:58:43;94871.91;;;22.52;60.02
32243;BME280;18731;42.830;24.390;2022-07-23T06:01:09;94875.72;;;22.80;59.06
32243;BME280;18731;42.830;24.390;2022-07-23T06:03:37;94873.59;;;23.08;57.90
32243;BME280;18731;42.830;24.390;2022-07-23T06:06:04;94864.16;;;23.24;58.25
32243;BME280;18731;42.830;24.390;2022-07-23T06:08:30;94875.66;;;23.56;57.60
32243;BME280;18731;42.830;24.390;2022-07-23T06:10:56;94872.38;;;23.76;57.13
32243;BME280;18731;42.830;24.390;2022-07-23T06:13:21;94855.94;;;23.86;57.53
32243;BME280;18731;42.830;24.390;2022-07-23T06:15:47;94853.69;;;24.15;56.56
32243;BME280;18731;42.830;24.390;2022-07-23T06:18:15;94873.34;;;24.37;54.60
32243;BME280;18731;42.830;24.390;2022-07-23T06:20:42;94856.72;;;24.58;55.78
32243;BME280;18731;42.830;24.390;2022-07-23T06:23:08;94863.31;;;24.91;54.78
32243;BME280;18731;42.830;24.390;2022-07-23T06:25:34;94850.59;;;25.12;53.91
32243;BME280;18731;42.830;24.390;2022-07-23T06:28:00;94852.53;;;25.38;53.14
32243;BME280;18731;42.830;24.390;2022-07-23T06:30:28;94851.34;;;25.66;53.87
32243;BME280;18731;42.830;24.390;2022-07-23T06:32:55;94844.84;;;25.80;52.11
32243;BME280;18731;42.830;24.390;2022-07-23T06:35:21;94849.06;;;26.08;51.16
32243;BME280;18731;42.830;24.390;2022-07-23T06:37:47;94848.66;;;26.33;52.00
32243;BME280;18731;42.830;24.390;2022-07-23T06:40:16;94814.53;;;26.37;51.17
32243;BME280;18731;42.830;24.390;2022-07-23T06:42:44;94828.97;;;26.77;51.36
32243;BME280;18731;42.830;24.390;2022-07-23T06:45:10;94830.69;;;27.07;51.07
32243;BME280;18731;42.830;24.390;2022-07-23T06:47:36;94836.28;;;27.36;49.78
32243;BME280;18731;42.830;24.390;2022-07-23T06:50:02;94811.28;;;27.50;49.67
32243;BME280;18731;42.830;24.390;2022-07-23T06:52:28;94825.66;;;27.87;49.49
32243;BME280;18731;42.830;24.390;2022-07-23T06:54:54;94675.13;;;26.99;49.02
32243;BME280;18731;42.830;24.390;2022-07-23T06:57:20;94712.22;;;27.48;48.68
32243;BME280;18731;42.830;24.390;2022-07-23T06:59:52;94699.19;;;27.69;47.26
32243;BME280;18731;42.830;24.390;2022-07-23T07:02:18;94714.00;;;28.00;46.31
32243;BME280;18731;42.830;24.390;2022-07-23T07:05:06;94789.44;;;28.79;46.53
32243;BME280;18731;42.830;24.390;2022-07-23T07:07:34;94825.88;;;29.21;46.21
32243;BME280;18731;42.830;24.390;2022-07-23T07:10:03;94740.44;;;28.77;45.20
32243;BME280;18731;42.830;24.390;2022-07-23T07:12:58;94687.69;;;28.83;45.35
32243;BME280;18731;42.830;24.390;2022-07-23T07:15:47;94697.13;;;29.07;46.04
32243;BME280;18731;42.830;24.390;2022-07-23T07:18:13;94750.72;;;29.62;45.31
32243;BME280;18731;42.830;24.390;2022-07-23T07:20:39;94662.09;;;29.33;45.33
32243;BME280;18731;42.830;24.390;2022-07-23T07:23:05;94647.91;;;29.34;44.49
32243;BME280;18731;42.830;24.390;2022-07-23T07:25:31;94769.50;;;30.33;44.74
32243;BME280;18731;42.830;24.390;2022-07-23T07:28:03;94801.44;;;30.52;40.58
32243;BME280;18731;42.830;24.390;2022-07-23T07:30:33;94756.03;;;30.35;41.11
32243;BME280;18731;42.830;24.390;2022-07-23T07:33:00;94692.50;;;29.86;37.85
32243;BME280;18731;42.830;24.390;2022-07-23T07:35:27;94643.69;;;29.77;39.97
32243;BME280;18731;42.830;24.390;2022-07-23T07:37:53;94635.97;;;30.06;39.05
32243;BME280;18731;42.830;24.390;2022-07-23T07:40:20;94678.47;;;30.58;34.02
32243;BME280;18731;42.830;24.390;2022-07-23T07:42:49;94702.16;;;30.87;33.58
32243;BME280;18731;42.830;24.390;2022-07-23T07:45:16;94645.16;;;30.75;31.14
32243;BME280;18731;42.830;24.390;2022-07-23T07:47:42;94799.16;;;31.84;31.82
32243;BME280;18731;42.830;24.390;2022-07-23T07:50:08;94796.25;;;31.96;34.04
32243;BME280;18731;42.830;24.390;2022-07-23T07:52:35;94792.28;;;32.34;31.53
32243;BME280;18731;42.830;24.390;2022-07-23T07:55:09;94785.03;;;32.55;33.05
32243;BME280;18731;42.830;24.390;2022-07-23T07:57:39;94614.22;;;31.56;33.60
32243;BME280;18731;42.830;24.390;2022-07-23T08:00:09;94677.66;;;32.11;32.89
32243;BME280;18731;42.830;24.390;2022-07-23T08:02:51;94656.94;;;32.16;32.65
32243;BME280;18731;42.830;24.390;2022-07-23T08:05:25;94636.09;;;32.15;29.91
32243;BME280;18731;42.830;24.390;2022-07-23T08:08:15;94625.03;;;32.24;29.14
32243;BME280;18731;42.830;24.390;2022-07-23T08:11:36;94713.25;;;33.21;28.26
32243;BME280;18731;42.830;24.390;2022-07-23T08:15:08;94641.97;;;32.92;23.31
32243;BME280;18731;42.830;24.390;2022-07-23T08:18:10;94702.34;;;33.50;24.92
32243;BME280;18731;42.830;24.390;2022-07-23T08:21:36;94608.09;;;33.06;24.57
32243;BME280;18731;42.830;24.390;2022-07-23T08:24:29;94679.88;;;33.72;22.13
32243;BME280;18731;42.830;24.390;2022-07-23T08:27:02;94620.66;;;33.55;23.51
32243;BME280;18731;42.830;24.390;2022-07-23T08:29:59;94744.53;;;34.46;22.73
32243;BME280;18731;42.830;24.390;2022-07-23T08:32:28;94616.06;;;33.52;23.95
32243;BME280;18731;42.830;24.390;2022-07-23T08:34:56;94686.09;;;34.06;26.41
32243;BME280;18731;42.830;24.390;2022-07-23T08:37:36;94658.88;;;33.80;24.95
32243;BME280;18731;42.830;24.390;2022-07-23T08:40:03;94712.91;;;34.38;25.59
32243;BME280;18731;42.830;24.390;2022-07-23T08:42:35;94671.00;;;34.07;24.07
32243;BME280;18731;42.830;24.390;2022-07-23T08:45:02;94624.31;;;34.00;24.06
32243;BME280;18731;42.830;24.390;2022-07-23T08:47:29;94687.19;;;34.53;24.37
32243;BME280;18731;42.830;24.390;2022-07-23T08:50:10;94621.53;;;34.29;22.40
32243;BME280;18731;42.830;24.390;2022-07-23T08:53:22;94648.25;;;34.76;23.74
32243;BME280;18731;42.830;24.390;2022-07-23T08:56:44;94668.22;;;34.95;21.57
32243;BME280;18731;42.830;24.390;2022-07-23T08:59:10;94749.50;;;35.71;22.13
32243;BME280;18731;42.830;24.390;2022-07-23T09:01:39;94747.16;;;35.85;22.27
32243;BME280;18731;42.830;24.390;2022-07-23T09:04:05;94689.66;;;35.70;23.90
32243;BME280;18731;42.830;24.390;2022-07-23T09:06:35;94652.00;;;35.08;22.91
32243;BME280;18731;42.830;24.390;2022-07-23T09:09:35;94637.22;;;35.32;23.46
32243;BME280;18731;42.830;24.390;2022-07-23T09:12:09;94709.59;;;35.69;22.55
32243;BME280;18731;42.830;24.390;2022-07-23T09:15:07;94659.66;;;35.13;24.38
32243;BME280;18731;42.830;24.390;2022-07-23T09:17:40;94580.91;;;34.56;22.20
32243;BME280;18731;42.830;24.390;2022-07-23T09:20:14;94629.59;;;34.92;23.41
32243;BME280;18731;42.830;24.390;2022-07-23T09:22:47;94579.34;;;34.69;23.02
32243;BME280;18731;42.830;24.390;2022-07-23T09:25:30;94569.28;;;34.72;24.92
32243;BME280;18731;42.830;24.390;2022-07-23T09:33:48;94635.03;;;35.82;22.59
32243;BME280;18731;42.830;24.390;2022-07-23T09:36:14;94662.81;;;36.08;22.20
32243;BME280;18731;42.830;24.390;2022-07-23T09:38:51;94612.44;;;35.49;21.18
32243;BME280;18731;42.830;24.390;2022-07-23T09:41:34;94618.94;;;35.66;22.69
32243;BME280;18731;42.830;24.390;2022-07-23T09:44:15;94749.75;;;36.55;20.70
32243;BME280;18731;42.830;24.390;2022-07-23T09:47:45;94696.00;;;36.17;22.22
32243;BME280;18731;42.830;24.390;2022-07-23T09:51:02;94660.09;;;35.47;21.19
32243;BME280;18731;42.830;24.390;2022-07-23T09:53:34;94711.06;;;35.85;21.24
32243;BME280;18731;42.830;24.390;2022-07-23T09:56:22;94748.41;;;36.04;21.71
32243;BME280;18731;42.830;24.390;2022-07-23T09:59:48;94744.72;;;36.13;21.07
32243;BME280;18731;42.830;24.390;2022-07-23T10:02:25;94738.44;;;36.38;21.33
32243;BME280;18731;42.830;24.390;2022-07-23T10:04:54;94742.81;;;36.70;23.48
32243;BME280;18731;42.830;24.390;2022-07-23T10:07:22;94722.16;;;36.77;20.59
32243;BME280;18731;42.830;24.390;2022-07-23T10:09:50;94735.00;;;37.00;24.51
32243;BME280;18731;42.830;24.390;2022-07-23T10:12:19;94699.69;;;36.81;20.12
32243;BME280;18731;42.830;24.390;2022-07-23T10:15:06;94700.72;;;36.57;18.57
32243;BME280;18731;42.830;24.390;2022-07-23T10:17:33;94720.03;;;36.66;18.85
32243;BME280;18731;42.830;24.390;2022-07-23T10:20:27;94719.47;;;36.36;18.51
32243;BME280;18731;42.830;24.390;2022-07-23T10:23:10;94715.31;;;36.47;20.24
32243;BME280;18731;42.830;24.390;2022-07-23T10:25:57;94707.28;;;36.54;21.16
32243;BME280;18731;42.830;24.390;2022-07-23T10:28:54;94711.66;;;36.92;21.85
32243;BME280;18731;42.830;24.390;2022-07-23T10:37:15;94707.25;;;37.12;20.88
32243;BME280;18731;42.830;24.390;2022-07-23T10:39:48;94704.06;;;37.24;20.04
32243;BME280;18731;42.830;24.390;2022-07-23T10:42:15;94704.13;;;37.36;21.99
32243;BME280;18731;42.830;24.390;2022-07-23T10:44:45;94710.50;;;37.47;18.38
32243;BME280;18731;42.830;24.390;2022-07-23T10:47:12;94698.63;;;37.52;20.70
32243;BME280;18731;42.830;24.390;2022-07-23T10:49:53;94689.81;;;37.59;18.28
32243;BME280;18731;42.830;24.390;2022-07-23T10:52:21;94681.31;;;37.31;20.93
32243;BME280;18731;42.830;24.390;2022-07-23T10:57:49;94691.53;;;37.09;19.62
32243;BME280;18731;42.830;24.390;2022-07-23T11:00:19;94682.31;;;36.91;20.27
32243;BME280;18731;42.830;24.390;2022-07-23T11:03:32;94688.47;;;37.07;19.40
32243;BME280;18731;42.830;24.390;2022-07-23T11:06:02;94654.22;;;36.89;19.41
32243;BME280;18731;42.830;24.390;2022-07-23T11:08:28;94667.22;;;37.03;20.35
32243;BME280;18731;42.830;24.390;2022-07-23T11:11:07;94642.91;;;36.98;19.42
32243;BME280;18731;42.830;24.390;2022-07-23T11:13:44;94688.19;;;37.36;20.39
32243;BME280;18731;42.830;24.390;2022-07-23T11:16:19;94683.91;;;37.03;21.34
32243;BME280;18731;42.830;24.390;2022-07-23T11:21:40;94681.28;;;36.89;21.03
32243;BME280;18731;42.830;24.390;2022-07-23T11:24:12;94639.53;;;36.52;20.41
32243;BME280;18731;42.830;24.390;2022-07-23T11:26:45;94678.81;;;36.96;19.23
32243;BME280;18731;42.830;24.390;2022-07-23T11:32:17;94674.31;;;37.05;20.89
32243;BME280;18731;42.830;24.390;2022-07-23T11:34:46;94663.78;;;37.20;18.13
32243;BME280;18731;42.830;24.390;2022-07-23T11:37:28;94630.06;;;37.07;18.40
32243;BME280;18731;42.830;24.390;2022-07-23T11:39:58;94675.84;;;37.48;18.90
32243;BME280;18731;42.830;24.390;2022-07-23T11:42:24;94669.25;;;37.46;19.66
32243;BME280;18731;42.830;24.390;2022-07-23T11:44:51;94588.06;;;37.05;18.47
32243;BME280;18731;42.830;24.390;2022-07-23T11:47:22;94647.28;;;37.59;18.47
32243;BME280;18731;42.830;24.390;2022-07-23T11:49:55;94662.91;;;37.45;20.03
32243;BME280;18731;42.830;24.390;2022-07-23T11:52:25;94663.44;;;37.49;19.99
32243;BME280;18731;42.830;24.390;2022-07-23T11:57:30;94657.13;;;37.54;21.39
32243;BME280;18731;42.830;24.390;2022-07-23T12:02:59;94656.00;;;37.89;17.80
32243;BME280;18731;42.830;24.390;2022-07-23T12:05:29;94658.84;;;38.11;19.42
32243;BME280;18731;42.830;24.390;2022-07-23T12:07:56;94635.00;;;37.99;21.99
32243;BME280;18731;42.830;24.390;2022-07-23T12:10:28;94652.03;;;38.23;18.26
32243;BME280;18731;42.830;24.390;2022-07-23T12:12:59;94646.47;;;38.40;20.58
32243;BME280;18731;42.830;24.390;2022-07-23T12:15:31;94646.22;;;38.27;18.93
32243;BME280;18731;42.830;24.390;2022-07-23T12:18:06;94647.75;;;38.34;18.15
32243;BME280;18731;42.830;24.390;2022-07-23T12:20:35;94643.94;;;38.31;19.36
32243;BME280;18731;42.830;24.390;2022-07-23T12:23:05;94646.47;;;38.35;17.51
32243;BME280;18731;42.830;24.390;2022-07-23T12:25:33;94638.88;;;38.52;16.89
32243;BME280;18731;42.830;24.390;2022-07-23T12:30:38;94605.41;;;38.18;18.24
32243;BME280;18731;42.830;24.390;2022-07-23T12:33:05;94640.91;;;38.23;15.20
32243;BME280;18731;42.830;24.390;2022-07-23T12:38:17;94632.66;;;37.70;17.98
32243;BME280;18731;42.830;24.390;2022-07-23T12:40:46;94629.44;;;37.28;19.39
32243;BME280;18731;42.830;24.390;2022-07-23T12:43:33;94624.22;;;37.53;18.18
32243;BME280;18731;42.830;24.390;2022-07-23T12:46:19;94614.16;;;37.13;17.96
32243;BME280;18731;42.830;24.390;2022-07-23T12:51:39;94629.41;;;37.23;18.88
32243;BME280;18731;42.830;24.390;2022-07-23T12:54:09;94621.84;;;37.29;18.21
32243;BME280;18731;42.830;24.390;2022-07-23T12:56:44;94589.56;;;37.06;17.24
32243;BME280;18731;42.830;24.390;2022-07-23T12:59:13;94628.59;;;37.17;17.28
32243;BME280;18731;42.830;24.390;2022-07-23T13:01:42;94627.97;;;36.96;17.43
32243;BME280;18731;42.830;24.390;2022-07-23T13:04:14;94614.53;;;36.57;17.85
32243;BME280;18731;42.830;24.390;2022-07-23T13:06:58;94625.09;;;36.79;18.37
32243;BME280;18731;42.830;24.390;2022-07-23T13:09:33;94627.59;;;36.77;16.91
32243;BME280;18731;42.830;24.390;2022-07-23T13:12:00;94609.91;;;36.80;19.32
32243;BME280;18731;42.830;24.390;2022-07-23T13:14:48;94630.75;;;36.96;17.62
32243;BME280;18731;42.830;24.390;2022-07-23T13:17:20;94622.44;;;36.64;16.41
32243;BME280;18731;42.830;24.390;2022-07-23T13:20:07;94618.59;;;36.93;18.14
32243;BME280;18731;42.830;24.390;2022-07-23T13:22:34;94619.72;;;37.13;17.25
32243;BME280;18731;42.830;24.390;2022-07-23T13:25:00;94616.13;;;37.07;18.43
32243;BME280;18731;42.830;24.390;2022-07-23T13:27:25;94596.88;;;36.97;17.43
32243;BME280;18731;42.830;24.390;2022-07-23T13:29:51;94606.19;;;37.37;19.17
32243;BME280;18731;42.830;24.390;2022-07-23T13:32:17;94593.88;;;37.07;17.60
32243;BME280;18731;42.830;24.390;2022-07-23T13:34:42;94607.22;;;36.97;18.75
32243;BME280;18731;42.830;24.390;2022-07-23T13:37:08;94607.00;;;37.00;20.09
32243;BME280;18731;42.830;24.390;2022-07-23T13:39:34;94594.69;;;37.18;17.88
32243;BME280;18731;42.830;24.390;2022-07-23T13:42:00;94605.44;;;37.42;20.52
32243;BME280;18731;42.830;24.390;2022-07-23T13:44:25;94603.97;;;37.52;19.78
32243;BME280;18731;42.830;24.390;2022-07-23T13:46:51;94574.53;;;37.29;17.79
32243;BME280;18731;42.830;24.390;2022-07-23T13:49:18;94600.84;;;37.33;17.07
32243;BME280;18731;42.830;24.390;2022-07-23T13:51:45;94581.22;;;37.06;19.27
32243;BME280;18731;42.830;24.390;2022-07-23T13:54:11;94579.13;;;36.89;19.43
32243;BME280;18731;42.830;24.390;2022-07-23T13:56:36;94595.94;;;37.12;18.56
32243;BME280;18731;42.830;24.390;2022-07-23T13:59:03;94583.88;;;36.83;18.22
32243;BME280;18731;42.830;24.390;2022-07-23T14:01:28;94594.28;;;36.88;17.42
32243;BME280;18731;42.830;24.390;2022-07-23T14:04:12;94605.13;;;36.81;19.12
32243;BME280;18731;42.830;24.390;2022-07-23T14:07:01;94590.88;;;36.73;18.27
32243;BME280;18731;42.830;24.390;2022-07-23T14:10:08;94598.31;;;36.87;17.63
32243;BME280;18731;42.830;24.390;2022-07-23T14:12:56;94591.06;;;36.64;17.67
32243;BME280;18731;42.830;24.390;2022-07-23T14:15:57;94573.56;;;36.52;19.08
32243;BME280;18731;42.830;24.390;2022-07-23T14:18:53;94591.88;;;36.38;18.95
32243;BME280;18731;42.830;24.390;2022-07-23T14:21:52;94579.34;;;36.49;17.76
32243;BME280;18731;42.830;24.390;2022-07-23T14:24:26;94587.72;;;36.54;19.36
32243;BME280;18731;42.830;24.390;2022-07-23T14:27:09;94589.81;;;36.65;19.94
32243;BME280;18731;42.830;24.390;2022-07-23T14:29:45;94515.50;;;36.28;19.77
32243;BME280;18731;42.830;24.390;2022-07-23T14:32:10;94577.41;;;36.60;18.74
32243;BME280;18731;42.830;24.390;2022-07-23T14:34:42;94572.00;;;36.46;19.68
32243;BME280;18731;42.830;24.390;2022-07-23T14:37:11;94582.84;;;36.44;20.17
32243;BME280;18731;42.830;24.390;2022-07-23T14:39:39;94579.81;;;36.42;18.97
32243;BME280;18731;42.830;24.390;2022-07-23T14:42:20;94545.25;;;36.22;20.24
32243;BME280;18731;42.830;24.390;2022-07-23T14:45:20;94578.16;;;36.29;20.54
32243;BME280;18731;42.830;24.390;2022-07-23T14:48:31;94568.94;;;36.18;19.71
32243;BME280;18731;42.830;24.390;2022-07-23T14:51:01;94566.94;;;36.18;19.74
32243;BME280;18731;42.830;24.390;2022-07-23T14:53:26;94572.25;;;35.90;19.99
32243;BME280;18731;42.830;24.390;2022-07-23T14:56:15;94573.59;;;35.74;19.85
32243;BME280;18731;42.830;24.390;2022-07-23T14:59:08;94486.94;;;35.19;19.34
32243;BME280;18731;42.830;24.390;2022-07-23T15:01:35;94569.28;;;35.73;20.57
32243;BME280;18731;42.830;24.390;2022-07-23T15:04:05;94563.03;;;35.78;22.20
32243;BME280;18731;42.830;24.390;2022-07-23T15:06:51;94559.06;;;35.85;20.29
32243;BME280;18731;42.830;24.390;2022-07-23T15:09:20;94567.72;;;35.93;24.62
32243;BME280;18731;42.830;24.390;2022-07-23T15:11:51;94537.16;;;35.41;22.80
32243;BME280;18731;42.830;24.390;2022-07-23T15:14:17;94545.94;;;34.78;23.41
32243;BME280;18731;42.830;24.390;2022-07-23T15:16:42;94535.50;;;34.53;25.84
32243;BME280;18731;42.830;24.390;2022-07-23T15:19:08;94550.66;;;34.23;26.34
32243;BME280;18731;42.830;24.390;2022-07-23T15:21:34;94542.84;;;33.92;26.15
32243;BME280;18731;42.830;24.390;2022-07-23T15:24:00;94561.75;;;34.08;28.53
32243;BME280;18731;42.830;24.390;2022-07-23T15:26:39;94546.00;;;33.99;27.76
32243;BME280;18731;42.830;24.390;2022-07-23T15:29:04;94551.06;;;34.01;27.82
32243;BME280;18731;42.830;24.390;2022-07-23T15:31:32;94551.44;;;34.08;29.07
32243;BME280;18731;42.830;24.390;2022-07-23T15:34:03;94469.50;;;33.43;29.38
32243;BME280;18731;42.830;24.390;2022-07-23T15:36:45;94551.06;;;34.01;29.48
32243;BME280;18731;42.830;24.390;2022-07-23T15:39:21;94549.91;;;33.93;28.27
32243;BME280;18731;42.830;24.390;2022-07-23T15:41:53;94521.81;;;33.55;27.90
32243;BME280;18731;42.830;24.390;2022-07-23T15:44:19;94538.50;;;33.61;28.69
32243;BME280;18731;42.830;24.390;2022-07-23T15:46:45;94547.28;;;33.60;27.66
32243;BME280;18731;42.830;24.390;2022-07-23T15:49:13;94551.56;;;33.46;28.38
32243;BME280;18731;42.830;24.390;2022-07-23T15:51:39;94559.38;;;33.33;28.67
32243;BME280;18731;42.830;24.390;2022-07-23T15:54:06;94551.38;;;33.11;27.90
32243;BME280;18731;42.830;24.390;2022-07-23T15:56:33;94530.03;;;32.87;28.78
32243;BME280;18731;42.830;24.390;2022-07-23T15:59:00;94569.44;;;32.97;29.06
32243;BME280;18731;42.830;24.390;2022-07-23T16:01:31;94559.78;;;32.92;30.20
32243;BME280;18731;42.830;24.390;2022-07-23T16:03:58;94523.72;;;32.63;31.08
32243;BME280;18731;42.830;24.390;2022-07-23T16:06:25;94559.25;;;32.79;32.25
32243;BME280;18731;42.830;24.390;2022-07-23T16:08:51;94549.06;;;32.61;30.68
32243;BME280;18731;42.830;24.390;2022-07-23T16:11:21;94569.22;;;32.53;30.48
32243;BME280;18731;42.830;24.390;2022-07-23T16:13:49;94560.84;;;32.38;30.68
32243;BME280;18731;42.830;24.390;2022-07-23T16:16:19;94564.13;;;32.18;32.49
32243;BME280;18731;42.830;24.390;2022-07-23T16:18:48;94558.06;;;31.96;31.79
32243;BME280;18731;42.830;24.390;2022-07-23T16:21:20;94571.41;;;31.97;33.09
32243;BME280;18731;42.830;24.390;2022-07-23T16:23:51;94577.88;;;31.85;32.20
32243;BME280;18731;42.830;24.390;2022-07-23T16:26:20;94571.91;;;31.69;33.68
32243;BME280;18731;42.830;24.390;2022-07-23T16:28:51;94565.31;;;31.57;34.09
32243;BME280;18731;42.830;24.390;2022-07-23T16:31:17;94566.25;;;31.45;35.01
32243;BME280;18731;42.830;24.390;2022-07-23T16:33:47;94572.69;;;31.23;35.42
32243;BME280;18731;42.830;24.390;2022-07-23T16:36:13;94567.13;;;31.05;35.89
32243;BME280;18731;42.830;24.390;2022-07-23T16:38:43;94576.75;;;30.91;36.16
32243;BME280;18731;42.830;24.390;2022-07-23T16:41:12;94562.84;;;30.46;36.32
32243;BME280;18731;42.830;24.390;2022-07-23T16:43:39;94572.75;;;30.34;37.29
32243;BME280;18731;42.830;24.390;2022-07-23T16:46:05;94581.53;;;30.11;37.79
32243;BME280;18731;42.830;24.390;2022-07-23T16:48:32;94572.97;;;29.87;38.58
32243;BME280;18731;42.830;24.390;2022-07-23T16:51:01;94581.31;;;29.74;39.44